Time;durP1;ratioP1;P1;durP2;ratioP2;P2;SDS_P1;SDS_P2;PMS_P1;PMS_P2;Temp;Humidity;BMP_temperature;BMP_pressure;BME280_temperature;BME280_humidity;BME280_pressure;Samples;Min_cycle;Max_cycle;Signal;HPM_P1;HPM_P2
2021/11/12 00:13:19;;;;;;;;;93.67;72.67;;;;;7.78;69.61;101942.28;5043692;28;45163;-62
2021/11/12 00:15:50;;;;;;;;;90.00;68.00;;;;;7.72;69.97;101951.19;5043905;28;45425;-62
2021/11/12 00:18:17;;;;;;;;;91.67;65.33;;;;;7.72;69.91;101939.84;5043876;28;45207;-62
2021/11/12 00:20:44;;;;;;;;;94.33;70.33;;;;;7.73;69.73;101937.16;5043281;28;46126;-62
2021/11/12 00:23:11;;;;;;;;;91.67;65.67;;;;;7.73;69.48;101938.94;5043592;28;45269;-62
2021/11/12 00:25:37;;;;;;;;;91.00;69.67;;;;;7.70;69.97;101947.75;5043840;28;45322;-62
2021/11/12 00:28:02;;;;;;;;;90.67;70.00;;;;;7.68;69.75;101943.47;5043892;28;45296;-62
2021/11/12 00:38:36;;;;;;;;;95.33;71.00;;;;;7.64;69.79;101916.44;5043512;28;45300;-62
2021/11/12 00:41:20;;;;;;;;;97.00;72.67;;;;;7.65;69.64;101920.78;5043190;28;46119;-62
2021/11/12 00:43:55;;;;;;;;;97.67;70.67;;;;;7.66;70.00;101921.66;5043292;28;45206;-63
2021/11/12 00:46:31;;;;;;;;;93.00;73.33;;;;;7.58;70.16;101911.38;5043451;28;45231;-62
2021/11/12 00:48:59;;;;;;;;;91.00;72.00;;;;;7.60;70.28;101927.09;5043447;28;45290;-62
2021/11/12 00:56:24;;;;;;;;;89.00;66.00;;;;;7.63;69.99;101919.13;5043222;28;45405;-62
2021/11/12 00:58:51;;;;;;;;;92.67;69.00;;;;;7.63;70.26;101930.47;5043338;28;45166;-62
2021/11/12 01:01:18;;;;;;;;;87.00;67.00;;;;;7.63;70.21;101930.47;5042850;28;45339;-62
2021/11/12 01:03:45;;;;;;;;;94.33;64.33;;;;;7.62;69.83;101925.28;5033540;28;45480;-63
2021/11/12 01:06:10;;;;;;;;;87.67;67.00;;;;;7.64;70.55;101932.19;5039333;28;45356;-63
2021/11/12 01:08:36;;;;;;;;;86.33;63.67;;;;;7.65;70.41;101928.66;5042920;28;45341;-63
2021/11/12 01:11:02;;;;;;;;;89.00;62.00;;;;;7.66;70.77;101921.66;5025110;28;45380;-62
2021/11/12 01:13:28;;;;;;;;;86.00;58.67;;;;;7.66;70.88;101913.78;5042924;28;45256;-62
2021/11/12 01:15:54;;;;;;;;;85.67;63.67;;;;;7.67;70.68;101911.13;5042890;28;45297;-62
2021/11/12 01:18:20;;;;;;;;;89.33;64.33;;;;;7.66;70.88;101906.81;5042492;28;45461;-62
2021/11/12 01:20:47;;;;;;;;;74.33;56.67;;;;;7.66;71.29;101904.19;5042303;28;45408;-63
2021/11/12 01:23:12;;;;;;;;;80.33;58.67;;;;;7.67;70.74;101902.41;5042675;28;45405;-62
2021/11/12 01:25:39;;;;;;;;;90.67;65.67;;;;;7.63;70.95;101901.63;5042859;28;45269;-62
2021/11/12 01:28:04;;;;;;;;;80.33;61.67;;;;;7.62;70.90;101901.66;5042836;28;45525;-62
2021/11/12 01:30:30;;;;;;;;;85.33;61.00;;;;;7.60;70.76;101893.84;5042199;28;45328;-62
2021/11/12 01:32:56;;;;;;;;;84.67;61.67;;;;;7.62;70.90;101899.91;5042513;28;45221;-62
2021/11/12 01:35:22;;;;;;;;;82.33;60.67;;;;;7.63;70.93;101893.75;5042499;28;45225;-62
2021/11/12 01:37:47;;;;;;;;;88.33;63.00;;;;;7.63;70.84;101890.28;5042627;28;45395;-62
2021/11/12 01:40:20;;;;;;;;;86.33;63.67;;;;;7.63;71.02;101890.28;5042245;28;45321;-62
2021/11/12 01:43:11;;;;;;;;;83.67;62.00;;;;;7.62;70.68;101891.19;5042415;28;45237;-62
2021/11/12 01:48:19;;;;;;;;;89.67;63.00;;;;;7.53;70.86;101900.16;5042564;28;45214;-62
2021/11/12 01:50:50;;;;;;;;;80.00;61.00;;;;;7.49;71.01;101898.53;5041876;28;45388;-62
2021/11/12 01:53:25;;;;;;;;;84.00;63.67;;;;;7.49;70.91;101901.16;5042051;28;45166;-63
2021/11/12 01:56:23;;;;;;;;;88.33;61.33;;;;;7.48;71.09;101895.03;5042073;28;45228;-62
2021/11/12 02:01:21;;;;;;;;;74.00;57.00;;;;;7.51;71.03;101883.63;5041894;28;45396;-62
2021/11/12 02:03:49;;;;;;;;;77.67;59.00;;;;;7.52;71.04;101885.34;5042340;28;45322;-62
2021/11/12 02:06:21;;;;;;;;;80.33;58.67;;;;;7.48;70.84;101873.22;5041913;28;45210;-63
2021/11/12 02:08:47;;;;;;;;;80.00;60.00;;;;;7.48;70.90;101870.59;5042103;28;45474;-62
2021/11/12 02:11:14;;;;;;;;;88.33;64.00;;;;;7.46;70.60;101868.03;5041784;28;45372;-62
2021/11/12 02:13:42;;;;;;;;;79.33;60.00;;;;;7.46;70.76;101869.78;5041944;28;45311;-62
2021/11/12 02:16:12;;;;;;;;;88.33;60.33;;;;;7.45;70.63;101860.19;5042015;28;45352;-62
2021/11/12 02:18:41;;;;;;;;;84.00;59.33;;;;;7.45;70.59;101862.81;5041844;28;45233;-63
2021/11/12 02:21:11;;;;;;;;;81.67;59.00;;;;;7.41;70.23;101862.03;5041365;28;45402;-63
2021/11/12 02:23:51;;;;;;;;;82.33;58.33;;;;;7.39;70.54;101860.38;5041791;28;45182;-62
2021/11/12 02:26:22;;;;;;;;;77.00;60.00;;;;;7.34;70.46;101857.00;5041928;28;45436;-63
2021/11/12 02:28:52;;;;;;;;;76.33;56.33;;;;;7.33;70.46;101863.16;5040865;28;45219;-63
2021/11/12 02:31:19;;;;;;;;;69.67;52.00;;;;;7.30;70.88;101865.88;5041499;28;46221;-62
2021/11/12 02:33:45;;;;;;;;;82.67;61.00;;;;;7.28;70.29;101860.69;5041401;28;45315;-63
2021/11/12 02:36:14;;;;;;;;;77.67;58.67;;;;;7.21;70.02;101852.13;5041440;28;45251;-63
2021/11/12 02:38:43;;;;;;;;;81.00;57.00;;;;;7.17;70.30;101849.59;5041557;28;45342;-62
2021/11/12 02:41:09;;;;;;;;;73.00;52.25;;;;;7.15;70.32;101854.03;5041336;28;46332;-62
2021/11/12 02:43:37;;;;;;;;;75.67;55.00;;;;;7.11;70.39;101849.78;5041465;28;45375;-62
2021/11/12 02:46:04;;;;;;;;;82.33;58.00;;;;;7.08;70.24;101845.47;5041774;28;45294;-62
2021/11/12 02:48:35;;;;;;;;;74.50;54.00;;;;;7.03;70.12;101843.88;5041519;28;45245;-62
2021/11/12 02:51:01;;;;;;;;;70.67;55.00;;;;;6.95;70.04;101850.22;5041063;28;45540;-62
2021/11/12 02:53:26;;;;;;;;;73.50;56.25;;;;;6.91;70.50;101847.69;5040961;28;45346;-63
2021/11/12 02:55:52;;;;;;;;;71.75;51.25;;;;;6.87;70.40;101852.19;5041391;28;45408;-62
2021/11/12 02:58:19;;;;;;;;;75.25;55.00;;;;;6.86;70.53;101847.81;5041234;28;45182;-62
2021/11/12 03:00:46;;;;;;;;;71.25;52.50;;;;;6.81;70.92;101841.84;5041071;28;45833;-62
2021/11/12 03:03:12;;;;;;;;;68.00;51.25;;;;;6.78;70.88;101844.53;5041101;28;45431;-62
2021/11/12 03:05:38;;;;;;;;;69.75;53.75;;;;;6.76;70.58;101843.72;5041100;28;45447;-62
2021/11/12 03:08:04;;;;;;;;;68.75;51.50;;;;;6.71;70.20;101837.72;5040997;28;45292;-62
2021/11/12 03:10:31;;;;;;;;;77.25;54.00;;;;;6.67;70.67;101842.19;5041119;28;46285;-62
2021/11/12 03:12:58;;;;;;;;;70.25;50.75;;;;;6.65;70.98;101838.75;5040991;28;45217;-63
2021/11/12 03:15:24;;;;;;;;;71.00;51.75;;;;;6.65;71.07;101844.00;5041391;28;45248;-62
2021/11/12 03:17:53;;;;;;;;;70.25;49.25;;;;;6.65;70.29;101840.53;5041080;28;45249;-62
2021/11/12 03:20:20;;;;;;;;;65.00;49.50;;;;;6.66;70.44;101837.00;5040460;28;45422;-62
2021/11/12 03:22:54;;;;;;;;;65.25;49.75;;;;;6.63;70.24;101829.22;5040699;28;45415;-63
2021/11/12 03:47:11;;;;;;;;;68.25;50.25;;;;;6.47;70.72;101818.25;5047377;28;45273;-62
2021/11/12 04:00:38;;;;;;;;;70.00;47.00;;;;;6.44;70.97;101821.81;5027197;28;45375;-62
2021/11/12 04:41:43;;;;;;;;;60.75;45.50;;;;;6.23;72.23;101748.22;5026763;28;45346;-62
2021/11/12 05:51:42;;;;;;;;;64.25;47.75;;;;;6.51;70.83;101691.66;4967804;28;45960;-62
2021/11/12 05:56:55;;;;;;;;;60.50;43.00;;;;;6.47;70.91;101678.69;5025395;28;45230;-63
2021/11/12 05:59:23;;;;;;;;;53.25;45.50;;;;;6.39;71.05;101677.13;5042055;28;45335;-62
2021/11/12 06:01:50;;;;;;;;;57.75;45.50;;;;;6.34;70.99;101683.41;5037744;28;45935;-62
2021/11/12 06:04:15;;;;;;;;;48.50;41.25;;;;;6.30;70.45;101692.22;5041877;28;45309;-62
2021/11/12 06:06:42;;;;;;;;;58.50;43.25;;;;;6.27;71.10;101690.56;5042034;28;45202;-62
2021/11/12 06:09:08;;;;;;;;;52.25;44.75;;;;;6.27;70.34;101689.69;5041901;28;45805;-62
2021/11/12 06:11:34;;;;;;;;;62.75;45.00;;;;;6.26;71.00;101682.75;5042058;28;45193;-62
2021/11/12 06:14:00;;;;;;;;;50.50;36.25;;;;;6.29;71.02;101688.75;5041898;28;45260;-62
2021/11/12 06:16:26;;;;;;;;;54.25;44.00;;;;;6.32;70.67;101687.81;5042201;28;45513;-62
2021/11/12 06:18:53;;;;;;;;;63.00;43.50;;;;;6.36;70.86;101692.06;5047921;28;45467;-62
2021/11/12 06:21:22;;;;;;;;;59.00;43.00;;;;;6.36;70.91;101682.47;5029389;28;45385;-62
2021/11/12 06:23:49;;;;;;;;;49.00;40.25;;;;;6.35;70.93;101679.88;5034380;28;45474;-62
2021/11/12 06:26:14;;;;;;;;;47.75;38.00;;;;;6.37;71.00;101678.09;5041910;28;45296;-63
2021/11/12 06:28:41;;;;;;;;;42.00;39.25;;;;;6.31;70.02;101676.47;5041762;28;45277;-62
2021/11/12 06:31:06;;;;;;;;;52.75;41.25;;;;;6.29;70.98;101686.13;5041540;28;45323;-62
2021/11/12 06:33:32;;;;;;;;;31.00;23.25;;;;;6.28;70.28;101687.03;5041601;28;45439;-62
2021/11/12 06:35:58;;;;;;;;;59.00;43.75;;;;;6.28;70.92;101686.19;5041617;28;45248;-62
2021/11/12 06:38:26;;;;;;;;;47.75;37.50;;;;;6.28;70.51;101676.56;5041381;28;45362;-62
2021/11/12 06:40:53;;;;;;;;;49.00;37.25;;;;;6.29;70.69;101670.44;5041501;28;46077;-63
2021/11/12 06:51:14;;;;;;;;;45.50;39.50;;;;;6.30;70.61;101669.53;5041212;28;45795;-63
2021/11/12 06:53:40;;;;;;;;;56.25;42.50;;;;;6.31;71.56;101662.53;5034251;28;45283;-62
2021/11/12 06:56:06;;;;;;;;;37.25;35.00;;;;;6.31;70.89;101673.88;5035013;28;45521;-62
2021/11/12 06:58:32;;;;;;;;;48.50;37.75;;;;;6.26;70.74;101673.16;5034725;28;45380;-62
2021/11/12 07:00:58;;;;;;;;;50.00;41.75;;;;;6.26;71.16;101673.16;5041071;28;46284;-62
2021/11/12 07:03:26;;;;;;;;;37.25;31.00;;;;;6.29;70.71;101683.53;5041496;28;45316;-62
2021/11/12 07:05:52;;;;;;;;;47.00;39.75;;;;;6.32;70.92;101678.22;5041067;28;45308;-62
2021/11/12 07:08:18;;;;;;;;;42.50;36.25;;;;;6.30;71.03;101676.53;5040845;28;45613;-62
2021/11/12 07:10:44;;;;;;;;;52.00;34.50;;;;;6.31;71.10;101676.47;5040900;28;45379;-62
2021/11/12 07:13:10;;;;;;;;;40.50;34.00;;;;;6.32;70.62;101675.59;5023203;28;45451;-63
2021/11/12 07:15:35;;;;;;;;;42.00;33.75;;;;;6.34;71.01;101681.66;5040714;28;45603;-62
2021/11/12 07:18:01;;;;;;;;;36.75;36.00;;;;;6.35;71.62;101678.13;5041225;28;45553;-62
2021/11/12 07:20:28;;;;;;;;;45.00;32.75;;;;;6.39;71.66;101673.66;5027406;28;46245;-63
2021/11/12 07:22:54;;;;;;;;;41.75;36.00;;;;;6.41;70.85;101672.75;5014183;28;45324;-63
2021/11/12 07:25:19;;;;;;;;;37.25;31.00;;;;;6.46;71.08;101671.75;5027770;28;45320;-63
2021/11/12 07:27:45;;;;;;;;;44.75;36.75;;;;;6.47;70.79;101669.06;5021004;28;45570;-62
2021/11/12 07:30:14;;;;;;;;;40.25;34.50;;;;;6.46;70.92;101672.59;5020531;28;45381;-62
2021/11/12 07:32:43;;;;;;;;;45.75;36.50;;;;;6.44;70.92;101663.94;5019751;28;45460;-62
2021/11/12 07:35:09;;;;;;;;;41.00;33.75;;;;;6.45;71.05;101652.56;5020672;28;45357;-62
2021/11/12 07:37:35;;;;;;;;;37.25;31.50;;;;;6.47;70.82;101648.13;5020933;28;45318;-62
2021/11/12 07:40:04;;;;;;;;;47.50;35.25;;;;;6.43;70.51;101643.91;5020548;28;46077;-62
2021/11/12 07:45:06;;;;;;;;;37.00;32.00;;;;;6.48;71.16;101636.78;5020882;28;45303;-62
2021/11/12 07:47:32;;;;;;;;;43.25;33.50;;;;;6.53;70.61;101636.66;5020855;28;45318;-62
2021/11/12 07:50:00;;;;;;;;;37.75;30.75;;;;;6.56;71.13;101633.97;5020059;28;45280;-63
2021/11/12 07:52:32;;;;;;;;;39.25;33.75;;;;;6.58;71.30;101629.53;5027370;28;45454;-63
2021/11/12 07:54:59;;;;;;;;;35.25;31.50;;;;;6.60;71.09;101641.66;5040495;28;45323;-62
2021/11/12 07:57:25;;;;;;;;;39.50;32.50;;;;;6.63;70.99;101651.19;5040831;28;45374;-62
2021/11/12 07:59:51;;;;;;;;;47.75;35.50;;;;;6.61;70.95;101666.09;5040225;28;46026;-62
2021/11/12 08:02:18;;;;;;;;;39.00;35.00;;;;;6.62;70.39;101667.78;5040349;28;45178;-62
2021/11/12 08:04:45;;;;;;;;;37.50;31.00;;;;;6.60;70.90;101672.22;5040191;28;45292;-63
2021/11/12 08:07:11;;;;;;;;;48.00;34.50;;;;;6.65;70.85;101681.69;5040598;28;45387;-62
2021/11/12 08:09:41;;;;;;;;;38.25;31.25;;;;;6.72;70.50;101692.84;5040089;28;45469;-62
2021/11/12 08:12:09;;;;;;;;;46.75;37.75;;;;;6.81;70.65;101700.44;5040255;28;45522;-62
2021/11/12 08:17:27;;;;;;;;;41.75;37.50;;;;;6.94;70.17;101683.44;5040287;28;45776;-62
2021/11/12 08:20:19;;;;;;;;;42.75;34.75;;;;;6.96;69.88;101673.81;5039904;28;46158;-62
2021/11/12 08:22:52;;;;;;;;;38.25;33.25;;;;;6.96;70.57;101665.09;5039483;28;45209;-62
2021/11/12 08:25:25;;;;;;;;;69.67;53.67;;;;;6.95;70.71;101668.59;5040133;28;45356;-62
2021/11/12 08:38:29;;;;;;;;;39.25;31.00;;;;;6.97;70.38;101662.41;5043481;28;45351;-62
2021/11/12 08:41:10;;;;;;;;;52.75;39.75;;;;;6.95;70.27;101669.47;5043195;28;45296;-63
2021/11/12 08:43:44;;;;;;;;;51.75;40.50;;;;;6.98;70.14;101674.59;5043350;28;45180;-63
2021/11/12 08:48:43;;;;;;;;;46.00;39.00;;;;;7.03;70.21;101665.75;5043390;28;45552;-63
2021/11/12 08:51:17;;;;;;;;;51.75;40.25;;;;;7.08;70.08;101654.22;5043072;28;46312;-62
2021/11/12 08:53:44;;;;;;;;;60.50;43.00;;;;;7.11;70.28;101651.53;5043031;28;45330;-63
2021/11/12 08:56:13;;;;;;;;;47.75;40.50;;;;;7.10;70.55;101638.47;5043341;28;45332;-63
2021/11/12 08:58:49;;;;;;;;;48.00;39.00;;;;;7.14;70.39;101646.19;5043468;28;45499;-62
2021/11/12 09:01:15;;;;;;;;;57.00;39.50;;;;;7.19;70.47;101652.16;5042739;28;46296;-62
2021/11/12 09:03:41;;;;;;;;;43.75;35.25;;;;;7.25;70.49;101659.81;5043161;28;45317;-62
2021/11/12 09:06:08;;;;;;;;;57.50;41.00;;;;;7.30;70.68;101661.44;5042960;28;45467;-62
2021/11/12 09:08:35;;;;;;;;;54.50;40.75;;;;;7.32;69.95;101655.25;5042884;28;46410;-62
2021/11/12 09:11:04;;;;;;;;;44.75;37.75;;;;;7.32;70.25;101657.88;5042842;28;45386;-62
2021/11/12 09:13:50;;;;;;;;;47.50;40.25;;;;;7.36;70.53;101656.03;5042908;28;45242;-62
2021/11/12 09:16:17;;;;;;;;;52.50;41.25;;;;;7.41;70.13;101649.72;5043015;28;45308;-62
2021/11/12 09:18:44;;;;;;;;;55.00;40.00;;;;;7.47;69.87;101651.28;5027925;28;45353;-62
2021/11/12 09:21:10;;;;;;;;;57.25;42.00;;;;;7.51;70.01;101647.69;5042451;28;45425;-62
2021/11/12 09:23:36;;;;;;;;;50.25;37.75;;;;;7.54;69.79;101644.94;5042648;28;45317;-62
2021/11/12 09:26:02;;;;;;;;;57.25;41.50;;;;;7.58;69.94;101638.69;5042942;28;45154;-63
2021/11/12 09:28:28;;;;;;;;;49.50;40.00;;;;;7.65;69.89;101627.09;5024711;28;45248;-62
2021/11/12 09:30:54;;;;;;;;;57.75;38.75;;;;;7.73;69.54;101625.06;5042711;28;45174;-63
2021/11/12 09:33:19;;;;;;;;;48.75;40.50;;;;;7.81;69.59;101617.81;5042514;28;45236;-63
2021/11/12 09:35:45;;;;;;;;;51.00;41.25;;;;;7.88;69.65;101618.47;5042821;28;45249;-63
2021/11/12 09:38:11;;;;;;;;;55.00;43.00;;;;;7.96;69.52;101624.28;5041931;28;45509;-62
2021/11/12 09:40:37;;;;;;;;;60.75;39.50;;;;;8.07;69.72;101626.56;5042553;28;45331;-63
2021/11/12 09:43:02;;;;;;;;;53.50;38.50;;;;;8.16;69.18;101612.28;5042270;28;45333;-62
2021/11/12 09:45:28;;;;;;;;;51.00;43.00;;;;;8.26;68.93;101608.41;5042754;28;45351;-63
2021/11/12 09:47:54;;;;;;;;;54.75;40.50;;;;;8.37;68.86;101607.16;5042536;28;45279;-63
2021/11/12 09:50:25;;;;;;;;;50.00;40.50;;;;;8.46;68.54;101603.34;5042008;28;46254;-63
2021/11/12 09:52:50;;;;;;;;;57.25;42.50;;;;;8.55;68.51;101589.84;5041992;28;45395;-63
2021/11/12 09:55:16;;;;;;;;;47.75;34.75;;;;;8.60;67.91;101587.03;5042308;28;45395;-63
2021/11/12 09:57:43;;;;;;;;;48.00;37.75;;;;;8.62;67.87;101582.63;5042419;28;45316;-63
2021/11/12 10:00:12;;;;;;;;;54.75;41.50;;;;;8.65;67.58;101577.22;5042016;28;46100;-63
2021/11/12 10:02:43;;;;;;;;;52.25;40.25;;;;;8.68;67.23;101574.47;5041820;28;45308;-62
2021/11/12 10:05:15;;;;;;;;;52.50;38.25;;;;;8.71;67.19;101576.16;5042117;28;45392;-63
2021/11/12 10:07:40;;;;;;;;;62.75;51.00;;;;;8.72;67.21;101575.22;5041682;28;45352;-62
2021/11/12 10:10:11;;;;;;;;;58.25;45.00;;;;;8.76;67.47;101582.06;5041676;28;46212;-62
2021/11/12 10:12:46;;;;;;;;;51.25;39.50;;;;;8.81;67.47;101578.34;5041609;28;45470;-62
2021/11/12 10:15:17;;;;;;;;;51.75;37.75;;;;;8.86;67.02;101589.56;5041458;28;45195;-62
2021/11/12 10:17:45;;;;;;;;;51.50;42.00;;;;;8.90;66.87;101588.50;5041036;28;45446;-62
2021/11/12 10:20:14;;;;;;;;;58.50;45.00;;;;;8.96;66.92;101592.69;5040529;28;45499;-62
2021/11/12 10:22:43;;;;;;;;;54.75;43.25;;;;;9.00;66.67;101583.75;5041145;28;45443;-62
2021/11/12 10:25:09;;;;;;;;;58.75;44.50;;;;;9.02;65.94;101579.31;5041842;28;45383;-62
2021/11/12 10:27:36;;;;;;;;;54.25;43.25;;;;;9.04;66.36;101566.09;5041733;28;45302;-63
2021/11/12 10:30:12;;;;;;;;;57.50;41.00;;;;;9.06;66.31;101566.88;5041390;28;45482;-63
2021/11/12 10:32:39;;;;;;;;;57.00;44.75;;;;;9.05;65.93;101563.41;5041804;28;45221;-63
2021/11/12 10:35:08;;;;;;;;;61.25;44.75;;;;;9.05;65.89;101580.94;5041422;28;45165;-63
2021/11/12 10:37:38;;;;;;;;;56.50;43.25;;;;;9.00;66.21;101581.13;5041673;28;45362;-63
2021/11/12 10:40:13;;;;;;;;;47.75;39.25;;;;;9.00;66.06;101591.63;5041308;28;46254;-63
2021/11/12 10:42:43;;;;;;;;;62.75;45.50;;;;;8.99;65.96;101583.81;5041588;28;45269;-63
2021/11/12 10:45:15;;;;;;;;;61.75;43.00;;;;;9.00;66.37;101564.50;5041521;28;45332;-62
2021/11/12 10:48:06;;;;;;;;;62.00;48.00;;;;;9.04;66.15;101564.31;5041757;28;45196;-63
2021/11/12 10:50:35;;;;;;;;;60.25;47.75;;;;;9.07;65.88;101545.78;5040023;28;46340;-63
2021/11/12 10:53:07;;;;;;;;;59.75;42.50;;;;;9.12;66.00;101532.47;5041275;28;45557;-63
2021/11/12 10:55:34;;;;;;;;;52.75;41.00;;;;;9.19;65.96;101520.81;5041472;28;45158;-63
2021/11/12 10:58:06;;;;;;;;;58.00;43.00;;;;;9.21;65.84;101508.44;5041488;28;45400;-63
2021/11/12 11:00:37;;;;;;;;;57.50;42.75;;;;;9.20;65.60;101512.00;5041201;28;45309;-63
2021/11/12 11:03:09;;;;;;;;;64.00;42.50;;;;;9.22;65.54;101503.13;5041003;28;45322;-63
2021/11/12 11:05:44;;;;;;;;;55.50;44.00;;;;;9.26;65.55;101503.00;5040631;28;45320;-63
2021/11/12 11:08:20;;;;;;;;;56.50;43.75;;;;;9.29;65.77;101503.72;5041122;28;45412;-63
2021/11/12 11:10:59;;;;;;;;;57.75;44.75;;;;;9.29;65.38;101522.13;5040886;28;45531;-62
2021/11/12 11:13:40;;;;;;;;;44.50;39.50;;;;;9.36;65.49;101520.97;5040966;28;45270;-63
2021/11/12 11:16:10;;;;;;;;;54.50;42.00;;;;;9.41;65.85;101507.63;5041124;28;45337;-63
2021/11/12 11:18:39;;;;;;;;;54.75;43.50;;;;;9.46;65.20;101508.28;5041073;28;45306;-63
2021/11/12 11:21:15;;;;;;;;;58.00;44.25;;;;;9.52;65.51;101498.34;5040583;28;45919;-63
2021/11/12 11:24:03;;;;;;;;;54.00;43.00;;;;;9.61;65.21;101502.34;5022923;28;45369;-62
2021/11/12 11:26:41;;;;;;;;;55.25;42.25;;;;;9.67;64.45;101512.63;5041045;28;45344;-63
2021/11/12 11:29:09;;;;;;;;;48.25;38.75;;;;;9.74;64.79;101514.06;5040594;28;45507;-62
2021/11/12 11:31:36;;;;;;;;;55.25;39.00;;;;;9.79;64.06;101521.75;5040364;28;45194;-63
2021/11/12 11:34:04;;;;;;;;;46.75;39.50;;;;;9.81;64.33;101513.81;5040614;28;45356;-62
2021/11/12 11:36:31;;;;;;;;;52.75;39.50;;;;;9.86;63.88;101503.91;5022446;28;45393;-63
2021/11/12 11:39:00;;;;;;;;;52.00;38.25;;;;;9.92;63.70;101495.75;5040896;28;45270;-63
2021/11/12 11:41:26;;;;;;;;;49.25;38.25;;;;;9.97;63.98;101513.06;5040612;28;45294;-62
2021/11/12 11:43:53;;;;;;;;;51.00;38.25;;;;;10.01;63.94;101522.53;5040884;28;45446;-62
2021/11/12 11:46:31;;;;;;;;;46.50;40.00;;;;;10.03;63.43;101512.81;5040596;28;45479;-63
2021/11/12 11:48:58;;;;;;;;;52.00;40.75;;;;;10.11;63.34;101514.22;5040781;28;45308;-62
2021/11/12 11:51:36;;;;;;;;;51.25;41.00;;;;;10.17;63.06;101527.09;5039982;28;46299;-62
2021/11/12 11:54:11;;;;;;;;;53.00;40.00;;;;;10.24;63.26;101513.63;5040355;28;45388;-62
2021/11/12 11:56:42;;;;;;;;;45.25;36.50;;;;;10.34;62.91;101501.75;5040532;28;45363;-62
2021/11/12 11:59:08;;;;;;;;;48.25;40.00;;;;;10.45;63.01;101488.09;5040649;28;45427;-62
2021/11/12 12:01:48;;;;;;;;;49.00;41.00;;;;;10.56;62.73;101498.13;5041113;28;46129;-62
2021/11/12 12:04:14;;;;;;;;;49.25;39.75;;;;;10.66;62.73;101486.22;5043995;28;45316;-62
2021/11/12 12:07:01;;;;;;;;;47.50;38.75;;;;;10.71;62.07;101478.09;5044145;28;45396;-62
2021/11/12 12:10:00;;;;;;;;;49.50;38.25;;;;;10.79;62.03;101471.53;5040825;28;45578;-62
2021/11/12 12:12:33;;;;;;;;;52.50;40.75;;;;;10.94;62.48;101469.09;5043385;28;46238;-62
2021/11/12 12:15:05;;;;;;;;;43.25;37.50;;;;;11.05;62.18;101464.13;5044018;28;45293;-62
2021/11/12 12:17:45;;;;;;;;;48.25;38.50;;;;;11.09;61.62;101461.28;5043960;28;45319;-62
2021/11/12 12:32:19;;;;;;;;;54.75;40.75;;;;;11.43;61.09;101422.63;5043733;28;45170;-62
2021/11/12 13:25:37;;;;;;;;;41.25;35.75;;;;;12.11;60.42;101367.97;5042676;28;45335;-62
2021/11/12 13:28:26;;;;;;;;;51.25;41.00;;;;;12.16;60.55;101365.03;5042757;28;45459;-62
2021/11/12 13:31:05;;;;;;;;;46.00;41.00;;;;;12.21;60.60;101361.22;5042364;28;46288;-62
2021/11/12 13:33:35;;;;;;;;;49.25;41.00;;;;;12.23;60.65;101355.84;5042294;28;45432;-62
2021/11/12 13:36:08;;;;;;;;;53.75;40.50;;;;;12.26;60.74;101348.63;5042177;28;45320;-62
2021/11/12 13:38:42;;;;;;;;;53.25;42.00;;;;;12.27;60.86;101352.94;5042230;28;45601;-62
2021/11/12 13:41:11;;;;;;;;;54.25;42.50;;;;;12.32;60.61;101346.53;5042349;28;45329;-62
2021/11/12 13:43:45;;;;;;;;;51.75;40.00;;;;;12.35;60.91;101347.25;5042115;28;45365;-62
2021/11/12 13:46:11;;;;;;;;;53.25;41.75;;;;;12.40;60.89;101345.19;5042511;28;45311;-62
2021/11/12 13:48:50;;;;;;;;;54.25;45.00;;;;;12.44;61.08;101338.78;5042377;28;45557;-62
2021/11/12 13:51:23;;;;;;;;;56.50;43.00;;;;;12.49;61.13;101335.88;5041667;28;46139;-63
2021/11/12 13:53:49;;;;;;;;;51.25;41.25;;;;;12.55;60.91;101327.56;5041865;28;45328;-63
2021/11/12 13:56:14;;;;;;;;;47.25;40.75;;;;;12.60;60.95;101329.97;5042188;28;45308;-63
2021/11/12 13:58:40;;;;;;;;;41.00;35.00;;;;;12.65;61.08;101331.41;5042480;28;45232;-62
2021/11/12 14:01:26;;;;;;;;;53.25;41.25;;;;;12.70;60.85;101334.63;5041978;28;45487;-63
2021/11/12 14:03:51;;;;;;;;;51.50;40.50;;;;;12.74;61.17;101330.03;5041519;28;45393;-63
2021/11/12 14:06:19;;;;;;;;;56.00;40.50;;;;;12.76;61.04;101321.03;5041281;28;45406;-63
2021/11/12 14:08:52;;;;;;;;;53.00;41.00;;;;;12.79;61.16;101315.56;5041812;28;45553;-62
2021/11/12 14:11:20;;;;;;;;;48.75;40.00;;;;;12.81;60.84;101318.16;5041723;28;45565;-63
2021/11/12 14:13:48;;;;;;;;;52.50;41.75;;;;;12.82;61.00;101314.56;5042013;28;45657;-63
2021/11/12 14:16:18;;;;;;;;;51.50;41.50;;;;;12.84;61.35;101307.38;5041922;28;45265;-63
2021/11/12 14:21:45;;;;;;;;;55.75;45.00;;;;;12.87;61.38;101301.88;5041710;28;45586;-63
2021/11/12 14:24:53;;;;;;;;;54.75;45.75;;;;;12.86;61.40;101303.69;5041630;28;45548;-63
2021/11/12 14:35:17;;;;;;;;;61.00;45.75;;;;;12.82;61.92;101317.19;5041355;28;45313;-63
2021/11/12 14:45:42;;;;;;;;;61.50;47.00;;;;;12.81;61.92;101291.72;5041516;28;45272;-63
2021/11/12 14:48:20;;;;;;;;;56.00;45.00;;;;;12.80;61.93;101288.22;5041616;28;45366;-63
2021/11/12 14:53:33;;;;;;;;;58.00;46.75;;;;;12.79;62.16;101293.56;5040909;28;45411;-63
2021/11/12 14:56:06;;;;;;;;;59.75;47.00;;;;;12.75;62.09;101289.41;5041226;28;45469;-63
2021/11/12 14:58:34;;;;;;;;;62.25;48.25;;;;;12.73;62.35;101291.31;5028014;28;45239;-63
2021/11/12 15:01:08;;;;;;;;;60.75;47.25;;;;;12.71;62.72;101296.66;5041211;28;45230;-63
2021/11/12 15:03:34;;;;;;;;;58.25;46.50;;;;;12.69;62.74;101297.72;5041068;28;46215;-63
2021/11/12 15:06:01;;;;;;;;;58.00;47.00;;;;;12.69;62.85;101300.34;5040865;28;45171;-63
2021/11/12 15:08:27;;;;;;;;;60.00;47.25;;;;;12.66;62.99;101304.03;5041068;28;45364;-63
2021/11/12 15:10:54;;;;;;;;;57.25;47.25;;;;;12.68;62.80;101307.44;5041174;28;45263;-63
2021/11/12 15:13:20;;;;;;;;;53.50;41.75;;;;;12.69;63.25;101292.41;5041285;28;46171;-63
2021/11/12 15:15:47;;;;;;;;;63.25;51.25;;;;;12.69;63.27;101298.56;5041042;28;45340;-63
2021/11/12 15:18:14;;;;;;;;;57.50;42.50;;;;;12.70;63.58;101289.69;5041110;28;45232;-63
2021/11/12 15:20:41;;;;;;;;;58.75;48.00;;;;;12.71;63.43;101290.53;5040716;28;45333;-63
2021/11/12 15:31:17;;;;;;;;;59.75;44.75;;;;;12.70;63.70;101292.31;5040847;28;45320;-63
2021/11/12 15:33:49;;;;;;;;;61.00;46.50;;;;;12.70;63.62;101302.91;5040265;28;45363;-63
2021/11/12 15:36:16;;;;;;;;;58.25;44.50;;;;;12.69;64.01;101305.63;5039429;28;45336;-63
2021/11/12 15:38:55;;;;;;;;;57.50;45.00;;;;;12.70;63.79;101309.97;5040196;28;45256;-64
2021/11/12 15:44:00;;;;;;;;;56.50;47.00;;;;;12.67;64.07;101304.88;5040566;28;46198;-63
2021/11/12 15:46:29;;;;;;;;;59.75;42.50;;;;;12.66;64.18;101311.13;5040679;28;45332;-63
2021/11/12 15:48:55;;;;;;;;;54.00;42.00;;;;;12.64;64.33;101315.63;5040955;28;45295;-63
2021/11/12 15:51:32;;;;;;;;;50.75;44.25;;;;;12.63;64.41;101316.56;5040296;28;45167;-63
2021/11/12 15:59:25;;;;;;;;;56.25;44.75;;;;;12.54;64.70;101310.88;5040544;28;45395;-63
2021/11/12 16:07:26;;;;;;;;;63.50;47.25;;;;;12.48;64.91;101318.31;5040117;28;45355;-63
2021/11/12 16:09:45;;;;;;;;;60.00;45.25;;;;;12.46;65.15;101320.19;5038295;28;45261;-63
2021/11/12 16:25:32;;;;;;;;;57.00;45.25;;;;;12.29;65.74;101313.22;5040133;28;45385;-63
2021/11/12 16:28:03;;;;;;;;;58.75;45.25;;;;;12.29;65.82;101310.59;5040006;28;45258;-63
2021/11/12 16:30:36;;;;;;;;;63.25;49.50;;;;;12.32;66.11;101320.13;5040124;28;45500;-63
2021/11/12 16:33:04;;;;;;;;;51.00;41.25;;;;;12.33;66.02;101314.78;5039971;28;45363;-63
2021/11/12 16:35:34;;;;;;;;;52.00;43.00;;;;;12.35;65.88;101315.53;5039655;28;46377;-62
2021/11/12 16:38:06;;;;;;;;;63.50;47.25;;;;;12.36;65.98;101317.22;5039749;28;45319;-63
2021/11/12 16:40:38;;;;;;;;;63.50;47.25;;;;;12.37;66.19;101311.00;5039976;28;45570;-62
2021/11/12 16:43:12;;;;;;;;;67.25;50.75;;;;;12.38;66.13;101318.00;5040051;28;45321;-63